Time;durP1;ratioP1;P1;durP2;ratioP2;P2;SDS_P1;SDS_P2;PMS_P1;PMS_P2;Temp;Humidity;BMP_temperature;BMP_pressure;BME280_temperature;BME280_humidity;BME280_pressure;Samples;Min_cycle;Max_cycle;Signal;HPM_P1;HPM_P2
2022/03/19 00:00:17;;;;;;;14.48;3.47;;;;;;;;;;5092211;28;20047;-61
2022/03/19 00:02:43;;;;;;;14.50;3.55;;;;;;;;;;5085426;28;20048;-61
2022/03/19 00:05:09;;;;;;;15.25;3.60;;;;;;;;;;5090804;28;20119;-61
2022/03/19 00:07:41;;;;;;;13.38;3.70;;;;;;;;;;5087180;28;20036;-61
2022/03/19 00:10:08;;;;;;;9.32;3.28;;;;;;;;;;5094204;28;20124;-61
2022/03/19 00:12:35;;;;;;;13.05;2.90;;;;;;;;;;5092642;28;20072;-61
2022/03/19 00:15:01;;;;;;;16.10;3.42;;;;;;;;;;5084298;28;20390;-61
2022/03/19 00:17:27;;;;;;;13.32;3.30;;;;;;;;;;5082926;28;20123;-62
2022/03/19 00:19:53;;;;;;;14.40;3.55;;;;;;;;;;5093259;28;20123;-61
2022/03/19 00:22:19;;;;;;;17.48;3.83;;;;;;;;;;5093148;28;20460;-61
2022/03/19 00:24:45;;;;;;;12.43;3.10;;;;;;;;;;5092707;28;20055;-61
2022/03/19 00:27:11;;;;;;;8.82;3.15;;;;;;;;;;5085210;28;20512;-62
2022/03/19 00:29:37;;;;;;;8.80;3.08;;;;;;;;;;5093379;28;20043;-61
2022/03/19 00:32:03;;;;;;;19.23;3.90;;;;;;;;;;5091009;28;20541;-61
2022/03/19 00:34:29;;;;;;;9.30;3.20;;;;;;;;;;5088425;28;20036;-61
2022/03/19 00:36:56;;;;;;;13.10;4.10;;;;;;;;;;5087820;28;20063;-61
2022/03/19 00:39:22;;;;;;;15.52;4.03;;;;;;;;;;5092940;28;20040;-61
2022/03/19 00:41:48;;;;;;;10.20;3.22;;;;;;;;;;5090986;28;20123;-61
2022/03/19 00:44:14;;;;;;;13.80;3.65;;;;;;;;;;5090478;28;20169;-61
2022/03/19 00:46:40;;;;;;;13.35;3.55;;;;;;;;;;5084350;28;20036;-61
2022/03/19 00:49:06;;;;;;;12.30;3.60;;;;;;;;;;5092490;28;20035;-61
2022/03/19 00:51:32;;;;;;;14.32;3.67;;;;;;;;;;5092757;28;20075;-61
2022/03/19 00:53:59;;;;;;;11.85;3.38;;;;;;;;;;5092548;28;20089;-61
2022/03/19 00:56:25;;;;;;;12.93;3.17;;;;;;;;;;5091916;28;20073;-62
2022/03/19 00:58:51;;;;;;;18.80;4.25;;;;;;;;;;5072852;28;20036;-59
2022/03/19 01:01:17;;;;;;;18.70;3.47;;;;;;;;;;5072467;28;20041;-59
2022/03/19 01:03:42;;;;;;;15.57;3.67;;;;;;;;;;5088623;28;20028;-59
2022/03/19 01:06:08;;;;;;;14.57;3.83;;;;;;;;;;5083063;28;20036;-59
2022/03/19 01:08:34;;;;;;;13.20;3.63;;;;;;;;;;5092582;28;20043;-59
2022/03/19 01:11:00;;;;;;;13.73;3.70;;;;;;;;;;5091888;28;20079;-60
2022/03/19 01:13:26;;;;;;;11.90;3.63;;;;;;;;;;5091811;28;20036;-60
2022/03/19 01:15:52;;;;;;;11.07;3.90;;;;;;;;;;5088324;28;20165;-60
2022/03/19 01:18:18;;;;;;;11.30;3.67;;;;;;;;;;5091671;28;20054;-60
2022/03/19 01:20:44;;;;;;;14.40;4.07;;;;;;;;;;5091750;28;20047;-60
2022/03/19 01:23:10;;;;;;;13.20;3.60;;;;;;;;;;5091190;28;20078;-60
2022/03/19 01:25:36;;;;;;;14.90;3.53;;;;;;;;;;5087324;28;20660;-60
2022/03/19 01:28:02;;;;;;;14.85;3.67;;;;;;;;;;5091692;28;20040;-60
2022/03/19 01:30:28;;;;;;;15.32;4.00;;;;;;;;;;5092856;28;20070;-60
2022/03/19 01:32:54;;;;;;;18.85;3.70;;;;;;;;;;5090802;28;20036;-60
2022/03/19 01:35:21;;;;;;;14.00;3.83;;;;;;;;;;5088519;28;20059;-60
2022/03/19 01:37:47;;;;;;;16.63;3.55;;;;;;;;;;5086665;28;20112;-59
2022/03/19 01:40:14;;;;;;;15.98;4.03;;;;;;;;;;5091648;28;20043;-60
2022/03/19 01:42:41;;;;;;;12.85;3.70;;;;;;;;;;5091156;28;20128;-60
2022/03/19 01:45:12;;;;;;;14.23;3.60;;;;;;;;;;5089280;28;20386;-60
2022/03/19 01:47:38;;;;;;;12.88;3.58;;;;;;;;;;5085080;28;20066;-60
2022/03/19 01:50:05;;;;;;;14.00;3.33;;;;;;;;;;5091746;28;20067;-60
2022/03/19 01:52:31;;;;;;;14.63;3.92;;;;;;;;;;5090456;28;20039;-60
2022/03/19 01:54:59;;;;;;;13.65;3.50;;;;;;;;;;5088947;28;20036;-60
2022/03/19 01:57:26;;;;;;;14.25;4.38;;;;;;;;;;5083750;28;20067;-61
2022/03/19 01:59:52;;;;;;;12.20;3.22;;;;;;;;;;5091598;28;20094;-61
2022/03/19 02:02:19;;;;;;;12.60;4.35;;;;;;;;;;5090645;28;20036;-60
2022/03/19 02:04:45;;;;;;;13.57;3.60;;;;;;;;;;5087933;28;20039;-60
2022/03/19 02:07:12;;;;;;;18.60;4.60;;;;;;;;;;5088290;28;20085;-60
2022/03/19 02:09:38;;;;;;;11.73;3.50;;;;;;;;;;5091511;28;20138;-60
2022/03/19 02:12:05;;;;;;;13.80;3.90;;;;;;;;;;5090198;28;20036;-60
2022/03/19 02:14:35;;;;;;;12.18;4.10;;;;;;;;;;5089825;28;20409;-60
2022/03/19 02:17:02;;;;;;;16.30;3.70;;;;;;;;;;5083392;28;20040;-60
2022/03/19 02:19:28;;;;;;;16.60;4.00;;;;;;;;;;5091316;28;20036;-60
2022/03/19 02:21:54;;;;;;;12.85;4.22;;;;;;;;;;5090371;28;20036;-60
2022/03/19 02:27:05;;;;;;;17.58;4.57;;;;;;;;;;5081354;28;20052;-60
2022/03/19 02:29:31;;;;;;;15.88;4.10;;;;;;;;;;5073340;28;20515;-60
2022/03/19 02:31:58;;;;;;;14.77;3.95;;;;;;;;;;5088421;28;20044;-59
2022/03/19 02:34:25;;;;;;;12.40;4.40;;;;;;;;;;5090664;28;20071;-60
2022/03/19 02:36:51;;;;;;;12.20;3.92;;;;;;;;;;5087045;28;20469;-60
2022/03/19 02:39:18;;;;;;;9.85;3.45;;;;;;;;;;5086953;28;20048;-60
2022/03/19 02:41:45;;;;;;;10.85;4.00;;;;;;;;;;5089560;28;20067;-60
2022/03/19 02:44:12;;;;;;;15.18;4.07;;;;;;;;;;5081893;28;20044;-60
2022/03/19 02:46:43;;;;;;;15.80;4.10;;;;;;;;;;5087775;28;20075;-60
2022/03/19 02:49:09;;;;;;;15.05;4.25;;;;;;;;;;5090636;28;20063;-60
2022/03/19 02:51:36;;;;;;;15.23;4.20;;;;;;;;;;5081805;28;20659;-60
2022/03/19 02:54:04;;;;;;;11.98;4.32;;;;;;;;;;5087189;28;20070;-60
2022/03/19 02:56:30;;;;;;;15.00;3.90;;;;;;;;;;5091396;28;20044;-60
2022/03/19 02:58:56;;;;;;;15.82;4.43;;;;;;;;;;5089987;28;20124;-60
2022/03/19 03:01:22;;;;;;;13.60;3.92;;;;;;;;;;5085523;28;20131;-60
2022/03/19 03:03:48;;;;;;;18.15;4.32;;;;;;;;;;5087721;28;20040;-60
2022/03/19 03:06:14;;;;;;;12.77;4.50;;;;;;;;;;5083214;28;20123;-60
2022/03/19 03:08:41;;;;;;;14.90;5.00;;;;;;;;;;5087537;28;20036;-60
2022/03/19 03:11:06;;;;;;;10.88;5.30;;;;;;;;;;5086780;28;20043;-60
2022/03/19 03:13:32;;;;;;;14.60;4.22;;;;;;;;;;5085801;28;20531;-60
2022/03/19 03:15:58;;;;;;;13.60;4.45;;;;;;;;;;5081120;28;20124;-60
2022/03/19 03:18:24;;;;;;;14.50;4.43;;;;;;;;;;5084551;28;20032;-60
2022/03/19 03:20:51;;;;;;;13.38;5.07;;;;;;;;;;5088565;28;20109;-60
2022/03/19 03:23:16;;;;;;;13.75;4.40;;;;;;;;;;5090445;28;20129;-60
2022/03/19 03:25:42;;;;;;;14.48;4.18;;;;;;;;;;5091880;28;20040;-60
2022/03/19 03:28:09;;;;;;;15.93;4.03;;;;;;;;;;5085256;28;20043;-59
2022/03/19 03:30:35;;;;;;;10.05;3.92;;;;;;;;;;5079411;28;20067;-60
2022/03/19 03:33:01;;;;;;;16.75;4.75;;;;;;;;;;5092829;28;20090;-61
2022/03/19 03:35:27;;;;;;;19.13;4.68;;;;;;;;;;5093710;28;20484;-61
2022/03/19 03:37:53;;;;;;;17.83;4.60;;;;;;;;;;5094156;28;20036;-60
2022/03/19 03:40:19;;;;;;;13.20;3.95;;;;;;;;;;5086453;28;20382;-60
2022/03/19 03:42:46;;;;;;;13.40;4.47;;;;;;;;;;5093136;28;20314;-60
2022/03/19 03:45:12;;;;;;;17.63;4.95;;;;;;;;;;5091212;28;20451;-60
2022/03/19 03:47:38;;;;;;;12.70;4.53;;;;;;;;;;5083086;28;20077;-60
2022/03/19 03:50:04;;;;;;;14.40;4.10;;;;;;;;;;5093692;28;20032;-60
2022/03/19 03:52:30;;;;;;;12.70;4.28;;;;;;;;;;5092805;28;20090;-60
2022/03/19 03:54:57;;;;;;;13.25;4.43;;;;;;;;;;5093525;28;20039;-60
2022/03/19 03:57:23;;;;;;;12.10;4.55;;;;;;;;;;5088242;28;20047;-61
2022/03/19 03:59:50;;;;;;;14.48;4.50;;;;;;;;;;5094477;28;20036;-60
2022/03/19 04:02:16;;;;;;;14.68;4.50;;;;;;;;;;5093248;28;20074;-60
2022/03/19 04:04:42;;;;;;;17.90;4.60;;;;;;;;;;5092953;28;20043;-61
2022/03/19 04:07:08;;;;;;;16.48;4.88;;;;;;;;;;5093574;28;20039;-60
2022/03/19 04:09:34;;;;;;;14.65;5.38;;;;;;;;;;5093254;28;20072;-60
2022/03/19 04:12:03;;;;;;;18.67;4.72;;;;;;;;;;5093038;28;20452;-60
2022/03/19 04:14:29;;;;;;;9.13;4.22;;;;;;;;;;5094146;28;20072;-60
2022/03/19 04:16:55;;;;;;;12.30;4.95;;;;;;;;;;5085840;28;20033;-60
2022/03/19 04:19:21;;;;;;;12.73;4.68;;;;;;;;;;5092550;28;20043;-61
2022/03/19 04:21:47;;;;;;;13.98;4.65;;;;;;;;;;5094962;28;20078;-60
2022/03/19 04:24:13;;;;;;;14.45;4.75;;;;;;;;;;5114094;28;20544;-60
2022/03/19 04:26:39;;;;;;;15.75;4.70;;;;;;;;;;5085740;28;20047;-60
2022/03/19 04:29:05;;;;;;;13.38;4.63;;;;;;;;;;5099576;28;20171;-60
2022/03/19 04:31:31;;;;;;;17.63;5.15;;;;;;;;;;5101265;28;20519;-60
2022/03/19 04:33:57;;;;;;;14.20;5.15;;;;;;;;;;5093298;28;20086;-60
2022/03/19 04:36:30;;;;;;;16.83;5.55;;;;;;;;;;5091631;28;20032;-60
2022/03/19 04:38:56;;;;;;;14.10;4.30;;;;;;;;;;5082862;28;20040;-61
2022/03/19 04:41:22;;;;;;;12.60;4.88;;;;;;;;;;5095933;28;20481;-60
2022/03/19 04:43:48;;;;;;;16.95;5.38;;;;;;;;;;5093688;28;20032;-60
2022/03/19 04:46:15;;;;;;;14.60;5.10;;;;;;;;;;5090332;28;20043;-60
2022/03/19 04:48:45;;;;;;;13.45;4.97;;;;;;;;;;5086493;28;20048;-60
2022/03/19 04:51:15;;;;;;;13.48;4.85;;;;;;;;;;5095012;28;20146;-60
2022/03/19 04:53:41;;;;;;;15.73;4.90;;;;;;;;;;5093634;28;20043;-60
2022/03/19 04:56:07;;;;;;;13.20;5.43;;;;;;;;;;5091592;28;20040;-60
2022/03/19 04:58:34;;;;;;;12.73;4.72;;;;;;;;;;5099043;28;20036;-60
2022/03/19 05:01:00;;;;;;;17.92;5.18;;;;;;;;;;5089474;28;20603;-61
2022/03/19 05:03:26;;;;;;;18.70;5.10;;;;;;;;;;5081872;28;20123;-60
2022/03/19 05:05:52;;;;;;;14.95;5.38;;;;;;;;;;5083362;28;20118;-61
2022/03/19 05:08:18;;;;;;;14.80;5.30;;;;;;;;;;5082915;28;20043;-60
2022/03/19 05:13:29;;;;;;;13.40;4.88;;;;;;;;;;5081675;28;21715;-60
2022/03/19 05:15:55;;;;;;;15.43;5.05;;;;;;;;;;5084148;28;20043;-60
2022/03/19 05:18:21;;;;;;;14.25;5.45;;;;;;;;;;5088133;28;20039;-60
2022/03/19 05:20:47;;;;;;;13.95;4.68;;;;;;;;;;5113106;28;20393;-60
2022/03/19 05:23:13;;;;;;;18.15;5.25;;;;;;;;;;5112163;28;20052;-60
2022/03/19 05:25:40;;;;;;;12.43;4.85;;;;;;;;;;5103403;28;20619;-60
2022/03/19 05:28:06;;;;;;;13.68;4.57;;;;;;;;;;5093885;28;20088;-60
2022/03/19 05:30:32;;;;;;;14.68;5.45;;;;;;;;;;5092247;28;20393;-60
2022/03/19 05:32:58;;;;;;;15.45;4.72;;;;;;;;;;5092108;28;20048;-61
2022/03/19 05:35:25;;;;;;;15.77;4.90;;;;;;;;;;5092179;28;20044;-61
2022/03/19 05:37:51;;;;;;;13.77;4.68;;;;;;;;;;5091717;28;20040;-60
2022/03/19 05:40:17;;;;;;;9.82;5.10;;;;;;;;;;5078705;28;20032;-61
2022/03/19 05:42:43;;;;;;;15.65;4.95;;;;;;;;;;5089468;28;20127;-60
2022/03/19 05:45:10;;;;;;;14.60;5.13;;;;;;;;;;5091891;28;20094;-61
2022/03/19 05:47:38;;;;;;;16.48;4.75;;;;;;;;;;5090544;28;20040;-61
2022/03/19 05:50:04;;;;;;;13.93;5.25;;;;;;;;;;5083611;28;20044;-61
2022/03/19 05:52:30;;;;;;;17.55;4.38;;;;;;;;;;5092229;28;20036;-60
2022/03/19 05:54:56;;;;;;;14.93;5.30;;;;;;;;;;5092372;28;20440;-60
2022/03/19 05:57:22;;;;;;;16.75;5.28;;;;;;;;;;5090080;28;20119;-60
2022/03/19 05:59:48;;;;;;;15.70;5.15;;;;;;;;;;5083005;28;20430;-61
2022/03/19 06:02:14;;;;;;;14.60;4.50;;;;;;;;;;5091827;28;20089;-60
2022/03/19 06:04:40;;;;;;;13.88;4.93;;;;;;;;;;5091235;28;20043;-60
2022/03/19 06:07:06;;;;;;;12.38;4.32;;;;;;;;;;5089834;28;20097;-60
2022/03/19 06:09:32;;;;;;;14.98;4.68;;;;;;;;;;5085787;28;20048;-61
2022/03/19 06:11:58;;;;;;;15.13;4.65;;;;;;;;;;5087421;28;20048;-60
2022/03/19 06:14:25;;;;;;;12.45;4.75;;;;;;;;;;5092250;28;20043;-61
2022/03/19 06:16:51;;;;;;;17.38;5.53;;;;;;;;;;5090105;28;20115;-60
2022/03/19 06:19:17;;;;;;;14.68;4.28;;;;;;;;;;5084717;28;20165;-60
2022/03/19 06:21:44;;;;;;;15.48;4.43;;;;;;;;;;5081367;28;20039;-60
2022/03/19 06:24:10;;;;;;;14.95;4.90;;;;;;;;;;5091790;28;20032;-60
2022/03/19 06:26:36;;;;;;;14.38;4.70;;;;;;;;;;5089836;28;20051;-59
2022/03/19 06:29:03;;;;;;;13.63;4.90;;;;;;;;;;5082738;28;20047;-59
2022/03/19 06:31:29;;;;;;;18.60;4.70;;;;;;;;;;5071263;28;20571;-59
2022/03/19 06:33:56;;;;;;;13.95;4.57;;;;;;;;;;5077757;28;20040;-59
2022/03/19 06:39:07;;;;;;;15.52;4.47;;;;;;;;;;5083359;28;20048;-59
2022/03/19 06:41:33;;;;;;;16.20;4.80;;;;;;;;;;5090928;28;20490;-59
2022/03/19 06:43:59;;;;;;;16.63;4.78;;;;;;;;;;5087424;28;20123;-59
2022/03/19 06:46:26;;;;;;;16.45;5.05;;;;;;;;;;5086614;28;20292;-59
2022/03/19 06:48:52;;;;;;;13.43;4.90;;;;;;;;;;5073162;28;20044;-59
2022/03/19 06:51:18;;;;;;;14.13;4.95;;;;;;;;;;5087195;28;20036;-60
2022/03/19 06:53:44;;;;;;;17.02;5.28;;;;;;;;;;5086001;28;20036;-60
2022/03/19 06:56:10;;;;;;;19.20;5.78;;;;;;;;;;5089869;28;20044;-60
2022/03/19 06:58:36;;;;;;;16.17;5.18;;;;;;;;;;5080575;28;20082;-60
2022/03/19 07:01:03;;;;;;;16.10;5.22;;;;;;;;;;5093490;28;20391;-60
2022/03/19 07:03:29;;;;;;;17.52;5.55;;;;;;;;;;5094284;28;20043;-60
2022/03/19 07:05:55;;;;;;;15.27;4.65;;;;;;;;;;5094561;28;20039;-60
2022/03/19 07:08:21;;;;;;;17.92;5.53;;;;;;;;;;5093923;28;20115;-60
2022/03/19 07:10:48;;;;;;;21.20;5.22;;;;;;;;;;5091063;28;20123;-60
2022/03/19 07:13:14;;;;;;;13.65;6.47;;;;;;;;;;5090794;28;20043;-60
2022/03/19 07:15:41;;;;;;;20.40;5.60;;;;;;;;;;5086292;28;20158;-60
2022/03/19 07:18:07;;;;;;;17.17;5.18;;;;;;;;;;5091542;28;20511;-60
2022/03/19 07:20:33;;;;;;;15.60;5.45;;;;;;;;;;5086347;28;20039;-60
2022/03/19 07:23:01;;;;;;;18.48;5.70;;;;;;;;;;5084514;28;20040;-60
2022/03/19 07:25:28;;;;;;;19.00;5.50;;;;;;;;;;5079123;28;20116;-60
2022/03/19 07:27:55;;;;;;;17.92;5.15;;;;;;;;;;5083114;28;20036;-60
2022/03/19 07:30:21;;;;;;;12.57;4.50;;;;;;;;;;5078464;28;20402;-61
2022/03/19 07:32:48;;;;;;;17.85;5.43;;;;;;;;;;5091937;28;20036;-61
2022/03/19 07:35:14;;;;;;;13.70;5.15;;;;;;;;;;5092191;28;20051;-61
2022/03/19 07:37:41;;;;;;;14.88;5.00;;;;;;;;;;5088482;28;20051;-61
2022/03/19 07:40:08;;;;;;;15.25;5.43;;;;;;;;;;5084077;28;20032;-61
2022/03/19 07:42:34;;;;;;;17.15;5.75;;;;;;;;;;5091699;28;20060;-61
2022/03/19 07:45:02;;;;;;;12.20;4.75;;;;;;;;;;5088096;28;20040;-61
2022/03/19 07:47:28;;;;;;;15.13;5.20;;;;;;;;;;5091193;28;20082;-61
2022/03/19 07:49:54;;;;;;;13.63;4.90;;;;;;;;;;5090256;28;20493;-61
2022/03/19 07:52:21;;;;;;;16.10;5.07;;;;;;;;;;5084885;28;20046;-60
2022/03/19 07:54:47;;;;;;;14.65;4.80;;;;;;;;;;5089287;28;20040;-61
2022/03/19 07:57:14;;;;;;;16.35;5.43;;;;;;;;;;5080488;28;20041;-61
2022/03/19 07:59:40;;;;;;;17.77;4.38;;;;;;;;;;5087978;28;20036;-61
2022/03/19 08:02:06;;;;;;;13.45;4.18;;;;;;;;;;5081795;28;20043;-61
2022/03/19 08:04:32;;;;;;;17.45;5.15;;;;;;;;;;5075790;28;20044;-60
2022/03/19 08:06:58;;;;;;;12.63;4.28;;;;;;;;;;5092691;28;20044;-61
2022/03/19 08:09:24;;;;;;;15.27;4.72;;;;;;;;;;5084070;28;20044;-61
2022/03/19 08:11:51;;;;;;;18.27;4.78;;;;;;;;;;5088237;28;20032;-61
2022/03/19 08:14:17;;;;;;;16.63;4.80;;;;;;;;;;5085211;28;20050;-61
2022/03/19 08:16:44;;;;;;;9.73;4.18;;;;;;;;;;5093023;28;20044;-61
2022/03/19 08:19:13;;;;;;;15.50;3.95;;;;;;;;;;5092016;28;20442;-61
2022/03/19 08:21:40;;;;;;;13.82;4.13;;;;;;;;;;5090142;28;20086;-61
2022/03/19 08:24:06;;;;;;;12.48;4.03;;;;;;;;;;5088950;28;20631;-61
2022/03/19 08:26:33;;;;;;;14.15;3.75;;;;;;;;;;5084322;28;20060;-61
2022/03/19 08:28:59;;;;;;;13.00;3.85;;;;;;;;;;5072582;28;20640;-61
2022/03/19 08:31:25;;;;;;;13.70;3.63;;;;;;;;;;5090323;28;20047;-60
2022/03/19 08:33:52;;;;;;;15.32;3.70;;;;;;;;;;5087892;28;20391;-61
2022/03/19 08:36:18;;;;;;;14.70;4.32;;;;;;;;;;5087193;28;20044;-61
2022/03/19 08:41:29;;;;;;;20.52;3.65;;;;;;;;;;5092575;28;20048;-60
2022/03/19 08:43:55;;;;;;;13.23;3.97;;;;;;;;;;5092367;28;20036;-61
2022/03/19 08:46:21;;;;;;;12.65;3.80;;;;;;;;;;5090238;28;20044;-61
2022/03/19 08:48:47;;;;;;;12.13;3.58;;;;;;;;;;5086784;28;20509;-60
2022/03/19 08:53:59;;;;;;;14.77;3.70;;;;;;;;;;5090206;28;20035;-61
2022/03/19 08:56:25;;;;;;;9.52;2.50;;;;;;;;;;5083259;28;20110;-61
2022/03/19 08:58:51;;;;;;;15.65;3.50;;;;;;;;;;5085263;28;20032;-61
2022/03/19 09:01:18;;;;;;;10.18;3.22;;;;;;;;;;5086443;28;20500;-61
2022/03/19 09:03:44;;;;;;;17.48;3.65;;;;;;;;;;5089296;28;20024;-60
2022/03/19 09:06:14;;;;;;;15.18;3.42;;;;;;;;;;5084424;28;20386;-61
2022/03/19 09:08:40;;;;;;;13.15;3.30;;;;;;;;;;5090876;28;20040;-61
2022/03/19 09:11:06;;;;;;;11.07;2.70;;;;;;;;;;5092718;28;20089;-61
2022/03/19 09:13:32;;;;;;;10.45;2.78;;;;;;;;;;5092252;28;20040;-61
2022/03/19 09:15:58;;;;;;;8.82;2.17;;;;;;;;;;5093086;28;20497;-61
2022/03/19 09:18:26;;;;;;;11.35;3.05;;;;;;;;;;5091514;28;20039;-61
2022/03/19 09:20:52;;;;;;;8.43;2.72;;;;;;;;;;5092989;28;20494;-61
2022/03/19 09:23:18;;;;;;;9.18;2.63;;;;;;;;;;5092216;28;20067;-61
2022/03/19 09:25:44;;;;;;;12.45;2.90;;;;;;;;;;5092422;28;20071;-60
2022/03/19 09:28:10;;;;;;;8.93;3.17;;;;;;;;;;5092361;28;20036;-61
2022/03/19 09:30:36;;;;;;;10.80;2.70;;;;;;;;;;5092886;28;20449;-61
2022/03/19 09:33:02;;;;;;;11.13;2.45;;;;;;;;;;5092031;28;20039;-61
2022/03/19 09:35:28;;;;;;;8.25;2.17;;;;;;;;;;5092646;28;20405;-61
2022/03/19 09:37:54;;;;;;;12.13;2.53;;;;;;;;;;5092137;28;20406;-61
2022/03/19 09:40:20;;;;;;;11.38;2.90;;;;;;;;;;5092168;28;20046;-61
2022/03/19 09:42:47;;;;;;;11.48;3.10;;;;;;;;;;5092369;28;20040;-61
2022/03/19 09:45:14;;;;;;;11.52;2.53;;;;;;;;;;5091061;28;20068;-62
2022/03/19 09:47:40;;;;;;;9.90;2.90;;;;;;;;;;5092200;28;20040;-61
2022/03/19 09:50:06;;;;;;;11.18;2.70;;;;;;;;;;5092172;28;20126;-61
2022/03/19 09:52:36;;;;;;;12.75;2.88;;;;;;;;;;5091611;28;20107;-61
2022/03/19 09:55:01;;;;;;;11.63;2.95;;;;;;;;;;5092419;28;20048;-61
2022/03/19 09:57:27;;;;;;;11.43;2.63;;;;;;;;;;5092065;28;20089;-61
2022/03/19 09:59:53;;;;;;;9.13;2.80;;;;;;;;;;5091979;28;20115;-61
2022/03/19 10:02:19;;;;;;;13.15;3.00;;;;;;;;;;5090275;28;20032;-61
2022/03/19 10:04:45;;;;;;;10.13;2.80;;;;;;;;;;5091902;28;20047;-59
2022/03/19 10:09:57;;;;;;;14.27;2.90;;;;;;;;;;5091838;28;20044;-59
2022/03/19 10:12:27;;;;;;;12.32;2.60;;;;;;;;;;5090807;28;20052;-59
2022/03/19 10:14:54;;;;;;;7.85;2.42;;;;;;;;;;5091632;28;20048;-59
2022/03/19 10:17:26;;;;;;;8.02;1.75;;;;;;;;;;5092069;28;20152;-59
2022/03/19 10:19:52;;;;;;;6.20;2.00;;;;;;;;;;5090813;28;20067;-59
2022/03/19 10:22:29;;;;;;;7.70;2.00;;;;;;;;;;5092216;28;20039;-59
2022/03/19 10:25:18;;;;;;;12.07;2.22;;;;;;;;;;5091479;28;20516;-59
2022/03/19 10:27:44;;;;;;;5.88;1.98;;;;;;;;;;5091428;28;20522;-59
2022/03/19 10:30:15;;;;;;;9.73;2.13;;;;;;;;;;5091221;28;20074;-59
2022/03/19 10:32:41;;;;;;;7.85;2.10;;;;;;;;;;5092028;28;20040;-59
2022/03/19 10:35:24;;;;;;;8.10;2.00;;;;;;;;;;5091073;28;20042;-59
2022/03/19 10:37:50;;;;;;;8.38;2.25;;;;;;;;;;5090957;28;20123;-59
2022/03/19 10:40:16;;;;;;;7.30;1.98;;;;;;;;;;5091637;28;20068;-59
2022/03/19 10:42:42;;;;;;;8.07;1.60;;;;;;;;;;5091271;28;20548;-59
2022/03/19 10:45:10;;;;;;;4.55;1.73;;;;;;;;;;5088520;28;20123;-60
2022/03/19 10:47:43;;;;;;;6.57;1.40;;;;;;;;;;5085263;28;20048;-60
2022/03/19 10:50:10;;;;;;;4.55;1.50;;;;;;;;;;5089419;28;20097;-60
2022/03/19 10:52:36;;;;;;;4.18;1.60;;;;;;;;;;5090995;28;20417;-60
2022/03/19 10:55:04;;;;;;;8.00;1.60;;;;;;;;;;5091250;28;20036;-59
2022/03/19 10:57:30;;;;;;;6.63;2.00;;;;;;;;;;5087888;28;20051;-60
2022/03/19 10:59:56;;;;;;;5.38;1.60;;;;;;;;;;5086387;28;20044;-60
2022/03/19 11:02:26;;;;;;;5.55;1.85;;;;;;;;;;5088932;28;20397;-60
2022/03/19 11:04:52;;;;;;;8.32;2.17;;;;;;;;;;5089326;28;20097;-60
2022/03/19 11:07:20;;;;;;;9.18;1.83;;;;;;;;;;5091646;28;20047;-60
2022/03/19 11:09:50;;;;;;;5.97;1.73;;;;;;;;;;5090019;28;20512;-60
2022/03/19 11:12:21;;;;;;;5.25;1.60;;;;;;;;;;5091122;28;20044;-60
2022/03/19 11:14:48;;;;;;;7.45;1.80;;;;;;;;;;5091499;28;20047;-60
2022/03/19 11:17:24;;;;;;;7.15;1.73;;;;;;;;;;5091519;28;20375;-60
2022/03/19 11:20:01;;;;;;;9.20;2.83;;;;;;;;;;5091070;28;20039;-60
2022/03/19 11:22:29;;;;;;;8.13;1.80;;;;;;;;;;5090842;28;20051;-60
2022/03/19 11:24:55;;;;;;;9.05;2.25;;;;;;;;;;5091276;28;20032;-60
2022/03/19 11:27:21;;;;;;;7.55;2.03;;;;;;;;;;5091106;28;20039;-60
2022/03/19 11:29:47;;;;;;;2.67;1.02;;;;;;;;;;5091237;28;20119;-60
2022/03/19 11:32:22;;;;;;;4.90;1.45;;;;;;;;;;5090030;28;20170;-60
2022/03/19 11:34:50;;;;;;;7.55;1.67;;;;;;;;;;5086743;28;20047;-60
2022/03/19 11:37:16;;;;;;;6.70;1.73;;;;;;;;;;5091323;28;20044;-60
2022/03/19 11:40:14;;;;;;;7.20;1.95;;;;;;;;;;5089963;28;20032;-60
2022/03/19 11:42:54;;;;;;;5.95;1.60;;;;;;;;;;5077609;28;20540;-60
2022/03/19 11:45:20;;;;;;;6.20;1.40;;;;;;;;;;5092210;28;20082;-60
2022/03/19 11:47:46;;;;;;;7.60;1.65;;;;;;;;;;5094435;28;20086;-60
2022/03/19 11:50:26;;;;;;;3.60;1.67;;;;;;;;;;5094208;28;20047;-60
2022/03/19 11:52:55;;;;;;;5.80;1.83;;;;;;;;;;5094217;28;20048;-60
2022/03/19 11:55:23;;;;;;;5.00;1.80;;;;;;;;;;5093481;28;20104;-60
2022/03/19 11:57:58;;;;;;;5.50;1.90;;;;;;;;;;5094088;28;20048;-60
2022/03/19 12:00:25;;;;;;;4.68;1.80;;;;;;;;;;5094026;28;20047;-60
2022/03/19 12:03:04;;;;;;;4.95;1.83;;;;;;;;;;5094035;28;20086;-60
2022/03/19 12:05:31;;;;;;;4.30;1.70;;;;;;;;;;5093969;28;20037;-60
2022/03/19 12:08:04;;;;;;;6.43;1.73;;;;;;;;;;5094232;28;20044;-60
2022/03/19 12:10:38;;;;;;;4.85;2.00;;;;;;;;;;5093757;28;20048;-60
2022/03/19 12:13:21;;;;;;;6.85;1.50;;;;;;;;;;5093602;28;20054;-60
2022/03/19 12:15:47;;;;;;;5.43;2.10;;;;;;;;;;5093831;28;20040;-61
2022/03/19 12:18:34;;;;;;;5.78;1.70;;;;;;;;;;5094183;28;20032;-60
2022/03/19 12:21:03;;;;;;;4.82;1.73;;;;;;;;;;5093558;28;20032;-60
2022/03/19 12:23:38;;;;;;;5.78;1.63;;;;;;;;;;5094093;28;20051;-60
2022/03/19 12:26:05;;;;;;;4.47;1.70;;;;;;;;;;5094193;28;20119;-61
2022/03/19 12:28:32;;;;;;;5.63;1.90;;;;;;;;;;5093710;28;20040;-60
2022/03/19 12:31:05;;;;;;;5.18;1.50;;;;;;;;;;5093044;28;20125;-60
2022/03/19 12:33:31;;;;;;;4.60;1.75;;;;;;;;;;5093702;28;20035;-60
2022/03/19 12:35:58;;;;;;;3.90;1.30;;;;;;;;;;5093850;28;20047;-60
2022/03/19 12:38:32;;;;;;;4.55;1.45;;;;;;;;;;5092195;28;20111;-60
2022/03/19 12:43:43;;;;;;;5.82;1.70;;;;;;;;;;5081440;28;20504;-60
2022/03/19 12:46:09;;;;;;;4.57;1.60;;;;;;;;;;5091807;28;20394;-60
2022/03/19 12:48:39;;;;;;;6.55;1.90;;;;;;;;;;5093353;28;20046;-60
2022/03/19 12:51:06;;;;;;;4.10;1.55;;;;;;;;;;5093310;28;20523;-60
2022/03/19 12:53:33;;;;;;;6.47;1.63;;;;;;;;;;5086172;28;20443;-60
2022/03/19 12:56:18;;;;;;;9.48;1.92;;;;;;;;;;5090554;28;20040;-60
2022/03/19 12:58:45;;;;;;;3.63;1.70;;;;;;;;;;5080999;28;20113;-60
2022/03/19 13:01:12;;;;;;;5.82;1.95;;;;;;;;;;5075110;28;20037;-60
2022/03/19 13:03:38;;;;;;;5.47;1.58;;;;;;;;;;5087795;28;20021;-60
2022/03/19 13:06:04;;;;;;;5.13;1.60;;;;;;;;;;5085063;28;20512;-60
2022/03/19 13:08:30;;;;;;;6.53;1.50;;;;;;;;;;5084456;28;20032;-60
2022/03/19 13:10:56;;;;;;;6.07;1.70;;;;;;;;;;5092575;28;20570;-60
2022/03/19 13:13:22;;;;;;;6.07;1.58;;;;;;;;;;5093007;28;20485;-60
2022/03/19 13:15:48;;;;;;;3.20;1.30;;;;;;;;;;5093376;28;20046;-60
2022/03/19 13:18:25;;;;;;;4.80;1.65;;;;;;;;;;5091881;28;20048;-60
2022/03/19 13:21:02;;;;;;;4.45;1.42;;;;;;;;;;5091988;28;20048;-60
2022/03/19 13:23:28;;;;;;;5.88;1.30;;;;;;;;;;5085564;28;20044;-60
2022/03/19 13:25:55;;;;;;;4.25;1.30;;;;;;;;;;5088333;28;20043;-60
2022/03/19 13:28:21;;;;;;;3.90;1.42;;;;;;;;;;5092573;28;20067;-60
2022/03/19 13:30:49;;;;;;;4.38;1.42;;;;;;;;;;5092332;28;20032;-60
2022/03/19 13:33:16;;;;;;;4.70;1.33;;;;;;;;;;5092068;28;20040;-60
2022/03/19 13:35:47;;;;;;;4.15;1.60;;;;;;;;;;5092622;28;20119;-60
2022/03/19 13:38:14;;;;;;;3.00;1.58;;;;;;;;;;5092393;28;20094;-60
2022/03/19 13:40:40;;;;;;;8.57;1.73;;;;;;;;;;5090871;28;20040;-60
2022/03/19 13:43:06;;;;;;;4.25;1.60;;;;;;;;;;5092357;28;20406;-60
2022/03/19 13:45:32;;;;;;;5.07;1.58;;;;;;;;;;5091267;28;20046;-60
2022/03/19 13:48:05;;;;;;;5.22;1.58;;;;;;;;;;5084082;28;20051;-60
2022/03/19 13:50:32;;;;;;;4.03;1.80;;;;;;;;;;5084510;28;20509;-60
2022/03/19 13:53:00;;;;;;;3.50;1.52;;;;;;;;;;5091137;28;20405;-60
2022/03/19 13:55:26;;;;;;;5.90;1.90;;;;;;;;;;5092244;28;20059;-59
2022/03/19 13:57:57;;;;;;;6.50;1.50;;;;;;;;;;5092212;28;20040;-60
2022/03/19 14:00:23;;;;;;;;;;;;;;;;;;5091745;28;20115;-59
2022/03/19 14:02:53;;;;;;;4.53;1.58;;;;;;;;;;5090854;28;19923;-60
2022/03/19 14:05:23;;;;;;;7.78;1.73;;;;;;;;;;5072282;28;20124;-60
2022/03/19 14:07:49;;;;;;;4.43;1.80;;;;;;;;;;5074637;28;20047;-60
2022/03/19 14:10:15;;;;;;;7.07;1.75;;;;;;;;;;5090802;28;20044;-59
2022/03/19 14:12:43;;;;;;;4.60;1.35;;;;;;;;;;5091579;28;20044;-60
2022/03/19 14:15:10;;;;;;;5.07;1.50;;;;;;;;;;5091528;28;20405;-60
2022/03/19 14:17:43;;;;;;;3.47;1.45;;;;;;;;;;5088120;28;20044;-60
2022/03/19 14:20:10;;;;;;;6.70;1.75;;;;;;;;;;5088656;28;20067;-59
2022/03/19 14:22:36;;;;;;;2.97;1.20;;;;;;;;;;5090692;28;20071;-60
2022/03/19 14:25:02;;;;;;;6.35;1.92;;;;;;;;;;5085238;28;20040;-59
2022/03/19 14:27:28;;;;;;;4.38;1.10;;;;;;;;;;5090043;28;20513;-59
2022/03/19 14:29:54;;;;;;;4.40;1.42;;;;;;;;;;5089705;28;20032;-60
2022/03/19 14:32:19;;;;;;;4.32;1.50;;;;;;;;;;5089738;28;20044;-61
2022/03/19 14:34:45;;;;;;;4.47;1.05;;;;;;;;;;5089811;28;20079;-59
2022/03/19 14:37:11;;;;;;;5.85;1.65;;;;;;;;;;5091148;28;20040;-60
2022/03/19 14:39:37;;;;;;;4.55;1.35;;;;;;;;;;5090819;28;20415;-60
2022/03/19 14:42:04;;;;;;;3.47;1.30;;;;;;;;;;5090823;28;20044;-60
2022/03/19 14:44:30;;;;;;;6.53;1.30;;;;;;;;;;5091621;28;20036;-60
2022/03/19 14:46:56;;;;;;;4.97;1.60;;;;;;;;;;5091219;28;20040;-60
2022/03/19 14:49:22;;;;;;;5.38;0.90;;;;;;;;;;5090788;28;20044;-60
2022/03/19 14:51:48;;;;;;;6.65;1.42;;;;;;;;;;5090351;28;20048;-59
2022/03/19 14:54:14;;;;;;;4.88;1.27;;;;;;;;;;5091440;28;20055;-60